Hector, Pennsylvania
Current Conditions -  °F | °C
As of 8:15 PM on Saturday 25 Oct 2014 (Local Time) from KN38 Reporting Station
Broken Clouds Broken Clouds  
Wind Chill: 59°   Ceiling: 4200
Heat Index: 59°   Visibility: 10mi
Dew Point: 45°   Wind: 15mph
Humidity: 59%   Direction: 310°NW
Pressure: 29.67"   Gusts: 30mph
Location:  41.8444°N, 77.5442°W
Report Text: KN38 260015Z AUTO 31013G26KT 260V330 10SM BKN042 BKN050 15/07 A2967 RMK AO2
Loading
Personal Weather Stations






























Interactive Weather Map
Tropical Storm Tracking
New forecast layout! Learn more

10-Day Weather Forecast

Advertisements
Track Severe Weather on mobile